Spokane/Fairchild AFB, Washington
Current Conditions -  °F | °C
As of 7:58 PM on Saturday 20 Dec 2014 (Local Time) from KSKA Reporting Station
Moderate Rain Moderate Rain  
Wind Chill:   Ceiling: 500
Heat Index:   Visibility: 10mi
Dew Point:   Wind: 13mph
Humidity: 100%   Direction: 160°SSE
Pressure: 29.54"   Gusts: NA
Location:  47.62°N, 117.65°W
Report Text: KSKA 210358Z AUTO 16011KT 10SM RA OVC005 05/05 A2954 RMK AO2 SLP017 P0010 T00480048
Loading
Personal Weather Stations






























Interactive Weather Map New forecast layout! Learn more

10-Day Weather Forecast

Advertisements
Track Severe Weather on mobile